sensor_id;sensor_type;location;lat;lon;timestamp;pressure;altitude;pressure_sealevel;temperature;humidity
70198;BME280;57582;-34.876;138.628;2023-05-24T00:00:29;101873;;;15.22;56.35
70198;BME280;57582;-34.876;138.628;2023-05-24T00:03:29;101864;;;15.17;56.42
70198;BME280;57582;-34.876;138.628;2023-05-24T00:06:29;101874;;;15.03;56.22
70198;BME280;57582;-34.876;138.628;2023-05-24T00:09:29;101882;;;15.11;56.31
70198;BME280;57582;-34.876;138.628;2023-05-24T00:12:29;101887;;;15.24;57.03
70198;BME280;57582;-34.876;138.628;2023-05-24T00:15:29;101877;;;15.31;55.92
70198;BME280;57582;-34.876;138.628;2023-05-24T00:18:29;101879;;;15.42;55.58
70198;BME280;57582;-34.876;138.628;2023-05-24T00:21:29;101875;;;15.57;55.82
70198;BME280;57582;-34.876;138.628;2023-05-24T00:24:29;101878;;;15.74;54.61
70198;BME280;57582;-34.876;138.628;2023-05-24T00:27:29;101871;;;15.69;54.97
70198;BME280;57582;-34.876;138.628;2023-05-24T00:30:29;101869;;;15.71;54.53
70198;BME280;57582;-34.876;138.628;2023-05-24T00:33:29;101867;;;15.70;54.40
70198;BME280;57582;-34.876;138.628;2023-05-24T00:36:29;101855;;;15.79;54.13
70198;BME280;57582;-34.876;138.628;2023-05-24T00:39:29;101857;;;15.69;54.48
70198;BME280;57582;-34.876;138.628;2023-05-24T00:42:29;101853;;;15.81;54.69
70198;BME280;57582;-34.876;138.628;2023-05-24T00:45:29;101841;;;15.99;54.35
70198;BME280;57582;-34.876;138.628;2023-05-24T00:48:29;101840;;;16.22;53.96
70198;BME280;57582;-34.876;138.628;2023-05-24T00:51:29;101843;;;16.43;53.64
70198;BME280;57582;-34.876;138.628;2023-05-24T00:54:29;101836;;;16.13;53.69
70198;BME280;57582;-34.876;138.628;2023-05-24T00:57:29;101820;;;16.20;53.92
70198;BME280;57582;-34.876;138.628;2023-05-24T01:00:29;101815;;;16.20;53.86
70198;BME280;57582;-34.876;138.628;2023-05-24T01:03:29;101808;;;16.38;53.49
70198;BME280;57582;-34.876;138.628;2023-05-24T01:06:29;101804;;;16.55;53.86
70198;BME280;57582;-34.876;138.628;2023-05-24T01:09:32;101799;;;16.64;53.07
70198;BME280;57582;-34.876;138.628;2023-05-24T01:12:34;101792;;;16.76;53.56
70198;BME280;57582;-34.876;138.628;2023-05-24T01:18:32;101781;;;16.74;53.10
70198;BME280;57582;-34.876;138.628;2023-05-24T01:24:31;101782;;;17.23;52.44
70198;BME280;57582;-34.876;138.628;2023-05-24T01:27:29;101778;;;17.53;51.53
70198;BME280;57582;-34.876;138.628;2023-05-24T01:30:29;101779;;;17.73;51.57
70198;BME280;57582;-34.876;138.628;2023-05-24T01:33:29;101780;;;17.95;50.57
70198;BME280;57582;-34.876;138.628;2023-05-24T01:36:29;101774;;;17.87;49.33
70198;BME280;57582;-34.876;138.628;2023-05-24T01:39:29;101772;;;18.08;50.06
70198;BME280;57582;-34.876;138.628;2023-05-24T01:48:33;101755;;;18.42;48.25
70198;BME280;57582;-34.876;138.628;2023-05-24T01:51:30;101764;;;18.54;48.50
70198;BME280;57582;-34.876;138.628;2023-05-24T01:54:32;101756;;;18.57;47.70
70198;BME280;57582;-34.876;138.628;2023-05-24T01:57:29;101742;;;18.42;47.58
70198;BME280;57582;-34.876;138.628;2023-05-24T02:00:29;101746;;;18.74;48.01
70198;BME280;57582;-34.876;138.628;2023-05-24T02:03:29;101744;;;18.92;46.56
70198;BME280;57582;-34.876;138.628;2023-05-24T02:06:29;101726;;;19.04;46.62
70198;BME280;57582;-34.876;138.628;2023-05-24T02:09:29;101723;;;19.08;46.20
70198;BME280;57582;-34.876;138.628;2023-05-24T02:12:29;101717;;;19.32;45.94
70198;BME280;57582;-34.876;138.628;2023-05-24T02:15:29;101708;;;19.25;45.68
70198;BME280;57582;-34.876;138.628;2023-05-24T02:18:29;101701;;;19.33;45.73
70198;BME280;57582;-34.876;138.628;2023-05-24T02:21:29;101699;;;19.47;46.32
70198;BME280;57582;-34.876;138.628;2023-05-24T02:24:29;101682;;;19.35;46.05
70198;BME280;57582;-34.876;138.628;2023-05-24T02:27:29;101662;;;19.57;45.56
70198;BME280;57582;-34.876;138.628;2023-05-24T02:30:29;101658;;;19.55;45.44
70198;BME280;57582;-34.876;138.628;2023-05-24T02:33:29;101653;;;19.72;45.44
70198;BME280;57582;-34.876;138.628;2023-05-24T02:36:29;101642;;;19.66;44.48
70198;BME280;57582;-34.876;138.628;2023-05-24T02:39:29;101635;;;19.71;45.40
70198;BME280;57582;-34.876;138.628;2023-05-24T02:42:29;101625;;;19.91;45.13
70198;BME280;57582;-34.876;138.628;2023-05-24T02:45:29;101617;;;20.17;45.47
70198;BME280;57582;-34.876;138.628;2023-05-24T02:48:29;101614;;;20.10;43.86
70198;BME280;57582;-34.876;138.628;2023-05-24T02:51:29;101601;;;20.25;44.71
70198;BME280;57582;-34.876;138.628;2023-05-24T02:54:29;101594;;;20.28;43.72
70198;BME280;57582;-34.876;138.628;2023-05-24T02:57:29;101584;;;20.32;44.08
70198;BME280;57582;-34.876;138.628;2023-05-24T03:00:29;101580;;;20.16;43.65
70198;BME280;57582;-34.876;138.628;2023-05-24T03:03:29;101570;;;20.14;43.51
70198;BME280;57582;-34.876;138.628;2023-05-24T03:06:29;101568;;;20.32;43.93
70198;BME280;57582;-34.876;138.628;2023-05-24T03:09:29;101563;;;20.42;44.20
70198;BME280;57582;-34.876;138.628;2023-05-24T03:12:29;101553;;;20.66;44.88
70198;BME280;57582;-34.876;138.628;2023-05-24T03:15:29;101545;;;20.77;44.23
70198;BME280;57582;-34.876;138.628;2023-05-24T03:18:29;101539;;;20.85;44.63
70198;BME280;57582;-34.876;138.628;2023-05-24T03:21:29;101533;;;20.76;44.33
70198;BME280;57582;-34.876;138.628;2023-05-24T03:24:30;101529;;;20.69;44.20
70198;BME280;57582;-34.876;138.628;2023-05-24T03:27:29;101529;;;20.71;43.78
70198;BME280;57582;-34.876;138.628;2023-05-24T03:30:29;101525;;;20.67;44.13
70198;BME280;57582;-34.876;138.628;2023-05-24T03:33:29;101530;;;20.71;43.89
70198;BME280;57582;-34.876;138.628;2023-05-24T03:36:30;101531;;;20.46;44.46
70198;BME280;57582;-34.876;138.628;2023-05-24T03:39:29;101527;;;20.47;44.64
70198;BME280;57582;-34.876;138.628;2023-05-24T03:42:29;101525;;;20.36;44.41
70198;BME280;57582;-34.876;138.628;2023-05-24T03:45:29;101530;;;20.09;44.28
70198;BME280;57582;-34.876;138.628;2023-05-24T03:48:29;101524;;;20.06;44.43
70198;BME280;57582;-34.876;138.628;2023-05-24T03:51:29;101523;;;20.13;45.33
70198;BME280;57582;-34.876;138.628;2023-05-24T03:54:29;101518;;;20.10;45.11
70198;BME280;57582;-34.876;138.628;2023-05-24T03:57:29;101508;;;19.97;45.01
70198;BME280;57582;-34.876;138.628;2023-05-24T04:00:30;101504;;;19.93;45.12
70198;BME280;57582;-34.876;138.628;2023-05-24T04:03:29;101504;;;20.00;45.23
70198;BME280;57582;-34.876;138.628;2023-05-24T04:06:29;101508;;;20.06;44.66
70198;BME280;57582;-34.876;138.628;2023-05-24T04:09:29;101506;;;19.85;44.66
70198;BME280;57582;-34.876;138.628;2023-05-24T04:12:29;101494;;;19.91;45.02
70198;BME280;57582;-34.876;138.628;2023-05-24T04:15:29;101483;;;19.96;44.80
70198;BME280;57582;-34.876;138.628;2023-05-24T04:18:29;101482;;;19.87;44.43
70198;BME280;57582;-34.876;138.628;2023-05-24T04:21:29;101474;;;19.82;44.55
70198;BME280;57582;-34.876;138.628;2023-05-24T04:24:30;101473;;;19.77;44.79
70198;BME280;57582;-34.876;138.628;2023-05-24T04:27:29;101466;;;19.74;45.23
70198;BME280;57582;-34.876;138.628;2023-05-24T04:30:29;101466;;;19.94;45.31
70198;BME280;57582;-34.876;138.628;2023-05-24T04:33:29;101461;;;19.96;45.10
70198;BME280;57582;-34.876;138.628;2023-05-24T04:36:29;101453;;;19.70;44.44
70198;BME280;57582;-34.876;138.628;2023-05-24T04:39:29;101437;;;19.57;44.05
70198;BME280;57582;-34.876;138.628;2023-05-24T04:42:29;101437;;;19.63;44.50
70198;BME280;57582;-34.876;138.628;2023-05-24T04:45:29;101424;;;19.49;44.62
70198;BME280;57582;-34.876;138.628;2023-05-24T04:48:29;101422;;;19.54;44.97
70198;BME280;57582;-34.876;138.628;2023-05-24T04:51:29;101403;;;19.61;44.90
70198;BME280;57582;-34.876;138.628;2023-05-24T04:54:29;101410;;;19.72;44.85
70198;BME280;57582;-34.876;138.628;2023-05-24T04:57:29;101394;;;19.74;43.73
70198;BME280;57582;-34.876;138.628;2023-05-24T05:00:29;101391;;;19.82;44.34
70198;BME280;57582;-34.876;138.628;2023-05-24T05:03:29;101395;;;19.68;44.32
70198;BME280;57582;-34.876;138.628;2023-05-24T05:06:29;101403;;;19.69;44.12
70198;BME280;57582;-34.876;138.628;2023-05-24T05:09:29;101404;;;19.63;44.63
70198;BME280;57582;-34.876;138.628;2023-05-24T05:12:30;101399;;;19.70;44.57
70198;BME280;57582;-34.876;138.628;2023-05-24T05:15:29;101404;;;19.58;45.01
70198;BME280;57582;-34.876;138.628;2023-05-24T05:18:29;101396;;;19.55;44.94
70198;BME280;57582;-34.876;138.628;2023-05-24T05:21:29;101384;;;19.26;45.37
70198;BME280;57582;-34.876;138.628;2023-05-24T05:24:30;101385;;;19.17;45.67
70198;BME280;57582;-34.876;138.628;2023-05-24T05:27:29;101380;;;19.35;45.34
70198;BME280;57582;-34.876;138.628;2023-05-24T05:30:29;101378;;;19.44;45.00
70198;BME280;57582;-34.876;138.628;2023-05-24T05:33:30;101368;;;19.56;45.10
70198;BME280;57582;-34.876;138.628;2023-05-24T05:36:30;101374;;;19.47;45.33
70198;BME280;57582;-34.876;138.628;2023-05-24T05:39:29;101374;;;19.58;45.46
70198;BME280;57582;-34.876;138.628;2023-05-24T05:42:29;101373;;;19.64;45.51
70198;BME280;57582;-34.876;138.628;2023-05-24T05:45:29;101377;;;19.70;44.87
70198;BME280;57582;-34.876;138.628;2023-05-24T05:48:30;101374;;;19.76;45.19
70198;BME280;57582;-34.876;138.628;2023-05-24T05:51:29;101372;;;19.59;45.33
70198;BME280;57582;-34.876;138.628;2023-05-24T05:54:29;101376;;;19.51;45.68
70198;BME280;57582;-34.876;138.628;2023-05-24T05:57:29;101365;;;19.56;45.83
70198;BME280;57582;-34.876;138.628;2023-05-24T06:00:29;101370;;;19.65;45.63
70198;BME280;57582;-34.876;138.628;2023-05-24T06:03:29;101371;;;19.59;45.24
70198;BME280;57582;-34.876;138.628;2023-05-24T06:06:29;101362;;;19.61;45.38
70198;BME280;57582;-34.876;138.628;2023-05-24T06:09:29;101361;;;19.60;45.60
70198;BME280;57582;-34.876;138.628;2023-05-24T06:12:30;101375;;;19.65;45.33
70198;BME280;57582;-34.876;138.628;2023-05-24T06:15:29;101376;;;19.48;45.61
70198;BME280;57582;-34.876;138.628;2023-05-24T06:18:29;101394;;;19.47;45.90
70198;BME280;57582;-34.876;138.628;2023-05-24T06:21:29;101370;;;19.33;45.70
70198;BME280;57582;-34.876;138.628;2023-05-24T06:24:30;101376;;;19.27;45.98
70198;BME280;57582;-34.876;138.628;2023-05-24T06:27:29;101373;;;19.28;45.96
70198;BME280;57582;-34.876;138.628;2023-05-24T06:30:29;101370;;;19.23;46.12
70198;BME280;57582;-34.876;138.628;2023-05-24T06:33:29;101376;;;19.33;46.05
70198;BME280;57582;-34.876;138.628;2023-05-24T06:36:30;101379;;;19.39;46.02
70198;BME280;57582;-34.876;138.628;2023-05-24T06:39:29;101377;;;19.35;45.43
70198;BME280;57582;-34.876;138.628;2023-05-24T06:42:29;101358;;;19.10;45.56
70198;BME280;57582;-34.876;138.628;2023-05-24T06:45:29;101350;;;19.13;45.78
70198;BME280;57582;-34.876;138.628;2023-05-24T06:48:30;101335;;;18.95;45.81
70198;BME280;57582;-34.876;138.628;2023-05-24T06:51:29;101350;;;18.90;46.03
70198;BME280;57582;-34.876;138.628;2023-05-24T06:54:29;101353;;;18.96;46.03
70198;BME280;57582;-34.876;138.628;2023-05-24T06:57:29;101350;;;18.83;46.54
70198;BME280;57582;-34.876;138.628;2023-05-24T07:00:30;101335;;;18.89;46.53
70198;BME280;57582;-34.876;138.628;2023-05-24T07:03:30;101345;;;18.88;46.93
70198;BME280;57582;-34.876;138.628;2023-05-24T07:06:29;101339;;;18.86;46.92
70198;BME280;57582;-34.876;138.628;2023-05-24T07:09:29;101333;;;18.94;46.58
70198;BME280;57582;-34.876;138.628;2023-05-24T07:12:30;101332;;;18.90;46.78
70198;BME280;57582;-34.876;138.628;2023-05-24T07:15:29;101318;;;19.02;46.45
70198;BME280;57582;-34.876;138.628;2023-05-24T07:18:29;101310;;;19.06;46.63
70198;BME280;57582;-34.876;138.628;2023-05-24T07:21:29;101318;;;19.17;46.54
70198;BME280;57582;-34.876;138.628;2023-05-24T07:24:29;101307;;;19.21;46.24
70198;BME280;57582;-34.876;138.628;2023-05-24T07:27:29;101298;;;19.22;46.25
70198;BME280;57582;-34.876;138.628;2023-05-24T07:30:29;101296;;;19.24;46.90
70198;BME280;57582;-34.876;138.628;2023-05-24T07:33:29;101295;;;19.08;46.34
70198;BME280;57582;-34.876;138.628;2023-05-24T07:36:30;101280;;;18.98;46.29
70198;BME280;57582;-34.876;138.628;2023-05-24T07:39:29;101278;;;18.97;46.89
70198;BME280;57582;-34.876;138.628;2023-05-24T07:42:29;101281;;;19.11;46.05
70198;BME280;57582;-34.876;138.628;2023-05-24T07:45:29;101281;;;19.20;43.70
70198;BME280;57582;-34.876;138.628;2023-05-24T07:48:30;101287;;;19.41;42.87
70198;BME280;57582;-34.876;138.628;2023-05-24T07:51:29;101289;;;19.59;42.13
70198;BME280;57582;-34.876;138.628;2023-05-24T07:54:29;101284;;;19.80;41.53
70198;BME280;57582;-34.876;138.628;2023-05-24T07:57:29;101292;;;19.91;41.16
70198;BME280;57582;-34.876;138.628;2023-05-24T08:00:30;101290;;;19.80;40.85
70198;BME280;57582;-34.876;138.628;2023-05-24T08:03:29;101286;;;19.78;41.19
70198;BME280;57582;-34.876;138.628;2023-05-24T08:06:29;101279;;;19.57;41.25
70198;BME280;57582;-34.876;138.628;2023-05-24T08:09:30;101280;;;19.40;41.57
70198;BME280;57582;-34.876;138.628;2023-05-24T08:12:30;101274;;;19.52;41.61
70198;BME280;57582;-34.876;138.628;2023-05-24T08:15:29;101265;;;19.35;41.38
70198;BME280;57582;-34.876;138.628;2023-05-24T08:18:29;101265;;;19.45;41.51
70198;BME280;57582;-34.876;138.628;2023-05-24T08:21:29;101260;;;19.63;41.00
70198;BME280;57582;-34.876;138.628;2023-05-24T08:24:30;101272;;;19.59;40.57
70198;BME280;57582;-34.876;138.628;2023-05-24T08:27:29;101255;;;19.39;40.74
70198;BME280;57582;-34.876;138.628;2023-05-24T08:30:29;101260;;;19.21;41.21
70198;BME280;57582;-34.876;138.628;2023-05-24T08:33:29;101260;;;19.41;40.59
70198;BME280;57582;-34.876;138.628;2023-05-24T08:36:30;101259;;;19.48;40.97
70198;BME280;57582;-34.876;138.628;2023-05-24T08:39:29;101268;;;19.16;41.16
70198;BME280;57582;-34.876;138.628;2023-05-24T08:42:29;101259;;;18.92;40.53
70198;BME280;57582;-34.876;138.628;2023-05-24T08:45:29;101264;;;18.67;41.28
70198;BME280;57582;-34.876;138.628;2023-05-24T08:48:30;101264;;;18.61;41.30
70198;BME280;57582;-34.876;138.628;2023-05-24T08:51:30;101269;;;18.44;41.37
70198;BME280;57582;-34.876;138.628;2023-05-24T08:54:29;101268;;;18.50;41.83
70198;BME280;57582;-34.876;138.628;2023-05-24T08:57:31;101278;;;18.55;41.68
70198;BME280;57582;-34.876;138.628;2023-05-24T09:00:30;101282;;;18.70;41.26
70198;BME280;57582;-34.876;138.628;2023-05-24T09:03:29;101277;;;18.79;41.30
70198;BME280;57582;-34.876;138.628;2023-05-24T09:06:29;101277;;;18.77;41.36
70198;BME280;57582;-34.876;138.628;2023-05-24T09:09:29;101290;;;18.79;41.04
70198;BME280;57582;-34.876;138.628;2023-05-24T09:12:30;101305;;;18.97;41.30
70198;BME280;57582;-34.876;138.628;2023-05-24T09:15:29;101322;;;19.08;40.88
70198;BME280;57582;-34.876;138.628;2023-05-24T09:18:29;101318;;;19.00;40.42
70198;BME280;57582;-34.876;138.628;2023-05-24T09:21:29;101308;;;18.96;40.47
70198;BME280;57582;-34.876;138.628;2023-05-24T09:24:30;101318;;;18.93;40.85
70198;BME280;57582;-34.876;138.628;2023-05-24T09:27:30;101311;;;18.96;40.88
70198;BME280;57582;-34.876;138.628;2023-05-24T09:30:29;101311;;;19.07;41.15
70198;BME280;57582;-34.876;138.628;2023-05-24T09:33:30;101315;;;19.19;40.92
70198;BME280;57582;-34.876;138.628;2023-05-24T09:36:31;101315;;;19.20;40.34
70198;BME280;57582;-34.876;138.628;2023-05-24T09:39:29;101297;;;19.09;40.70
70198;BME280;57582;-34.876;138.628;2023-05-24T09:42:29;101321;;;19.34;40.74
70198;BME280;57582;-34.876;138.628;2023-05-24T09:45:29;101321;;;19.43;40.53
70198;BME280;57582;-34.876;138.628;2023-05-24T09:48:30;101314;;;19.35;40.69
70198;BME280;57582;-34.876;138.628;2023-05-24T09:51:29;101296;;;19.24;40.66
70198;BME280;57582;-34.876;138.628;2023-05-24T09:54:31;101322;;;19.40;40.18
70198;BME280;57582;-34.876;138.628;2023-05-24T09:57:29;101319;;;19.32;40.49
70198;BME280;57582;-34.876;138.628;2023-05-24T10:00:38;101326;;;19.23;40.80
70198;BME280;57582;-34.876;138.628;2023-05-24T10:03:30;101320;;;18.93;41.14
70198;BME280;57582;-34.876;138.628;2023-05-24T10:06:30;101308;;;19.02;41.11
70198;BME280;57582;-34.876;138.628;2023-05-24T10:09:30;101306;;;19.06;40.76
70198;BME280;57582;-34.876;138.628;2023-05-24T10:12:30;101304;;;18.96;41.37
70198;BME280;57582;-34.876;138.628;2023-05-24T10:15:30;101306;;;18.96;41.53
70198;BME280;57582;-34.876;138.628;2023-05-24T10:18:30;101306;;;19.02;41.66
70198;BME280;57582;-34.876;138.628;2023-05-24T10:21:30;101294;;;19.07;40.99
70198;BME280;57582;-34.876;138.628;2023-05-24T10:24:31;101303;;;18.94;41.02
70198;BME280;57582;-34.876;138.628;2023-05-24T10:27:30;101308;;;18.92;41.81
70198;BME280;57582;-34.876;138.628;2023-05-24T10:33:30;101303;;;18.60;41.90
70198;BME280;57582;-34.876;138.628;2023-05-24T10:36:30;101312;;;18.68;42.14
70198;BME280;57582;-34.876;138.628;2023-05-24T10:39:31;101321;;;18.74;41.29
70198;BME280;57582;-34.876;138.628;2023-05-24T10:42:30;101325;;;18.80;41.77
70198;BME280;57582;-34.876;138.628;2023-05-24T10:45:30;101316;;;18.81;41.10
70198;BME280;57582;-34.876;138.628;2023-05-24T10:48:31;101314;;;18.73;41.33
70198;BME280;57582;-34.876;138.628;2023-05-24T10:54:30;101300;;;18.22;42.38
70198;BME280;57582;-34.876;138.628;2023-05-24T10:57:30;101286;;;17.97;42.94
70198;BME280;57582;-34.876;138.628;2023-05-24T11:00:32;101296;;;17.72;43.38
70198;BME280;57582;-34.876;138.628;2023-05-24T11:03:33;101304;;;17.72;43.43
70198;BME280;57582;-34.876;138.628;2023-05-24T11:09:30;101295;;;17.33;44.22
70198;BME280;57582;-34.876;138.628;2023-05-24T11:12:30;101289;;;16.97;44.92
70198;BME280;57582;-34.876;138.628;2023-05-24T11:15:30;101295;;;16.90;45.12
70198;BME280;57582;-34.876;138.628;2023-05-24T11:18:30;101288;;;16.72;46.03
70198;BME280;57582;-34.876;138.628;2023-05-24T11:21:30;101282;;;16.78;45.45
70198;BME280;57582;-34.876;138.628;2023-05-24T11:24:31;101279;;;16.78;45.44
70198;BME280;57582;-34.876;138.628;2023-05-24T11:27:30;101269;;;16.99;45.29
70198;BME280;57582;-34.876;138.628;2023-05-24T11:30:30;101259;;;16.93;45.16
70198;BME280;57582;-34.876;138.628;2023-05-24T11:33:30;101255;;;17.10;44.83
70198;BME280;57582;-34.876;138.628;2023-05-24T11:36:31;101243;;;17.31;44.29
70198;BME280;57582;-34.876;138.628;2023-05-24T11:39:30;101236;;;17.23;44.43
70198;BME280;57582;-34.876;138.628;2023-05-24T11:42:30;101223;;;17.45;44.55
70198;BME280;57582;-34.876;138.628;2023-05-24T11:45:30;101197;;;17.21;44.51
70198;BME280;57582;-34.876;138.628;2023-05-24T11:48:30;101202;;;17.18;44.62
70198;BME280;57582;-34.876;138.628;2023-05-24T11:51:30;101205;;;17.18;44.56
70198;BME280;57582;-34.876;138.628;2023-05-24T11:54:30;101224;;;17.21;44.63
70198;BME280;57582;-34.876;138.628;2023-05-24T11:57:33;101227;;;17.36;44.47
70198;BME280;57582;-34.876;138.628;2023-05-24T12:00:31;101246;;;17.21;44.76
70198;BME280;57582;-34.876;138.628;2023-05-24T12:03:31;101261;;;17.37;44.68
70198;BME280;57582;-34.876;138.628;2023-05-24T12:06:34;101257;;;17.41;44.18
70198;BME280;57582;-34.876;138.628;2023-05-24T12:09:30;101240;;;17.40;44.14
70198;BME280;57582;-34.876;138.628;2023-05-24T12:12:32;101246;;;17.19;44.46
70198;BME280;57582;-34.876;138.628;2023-05-24T12:15:30;101240;;;17.13;45.07
70198;BME280;57582;-34.876;138.628;2023-05-24T12:18:30;101237;;;17.13;44.81
70198;BME280;57582;-34.876;138.628;2023-05-24T12:21:31;101237;;;16.80;45.46
70198;BME280;57582;-34.876;138.628;2023-05-24T12:24:31;101231;;;16.93;45.10
70198;BME280;57582;-34.876;138.628;2023-05-24T12:27:30;101235;;;16.76;45.53
70198;BME280;57582;-34.876;138.628;2023-05-24T12:30:30;101226;;;16.70;45.87
70198;BME280;57582;-34.876;138.628;2023-05-24T12:33:30;101212;;;16.70;45.86
70198;BME280;57582;-34.876;138.628;2023-05-24T12:36:31;101194;;;16.83;45.82
70198;BME280;57582;-34.876;138.628;2023-05-24T12:39:30;101197;;;16.74;45.98
70198;BME280;57582;-34.876;138.628;2023-05-24T12:42:30;101198;;;16.81;46.07
70198;BME280;57582;-34.876;138.628;2023-05-24T12:45:30;101202;;;16.82;45.45
70198;BME280;57582;-34.876;138.628;2023-05-24T12:48:30;101195;;;16.66;46.15
70198;BME280;57582;-34.876;138.628;2023-05-24T12:51:30;101191;;;16.75;45.71
70198;BME280;57582;-34.876;138.628;2023-05-24T12:54:30;101191;;;16.78;45.73
70198;BME280;57582;-34.876;138.628;2023-05-24T12:57:30;101182;;;16.83;45.20
70198;BME280;57582;-34.876;138.628;2023-05-24T13:00:30;101179;;;16.65;45.62
70198;BME280;57582;-34.876;138.628;2023-05-24T13:03:30;101172;;;16.66;45.49
70198;BME280;57582;-34.876;138.628;2023-05-24T13:06:30;101166;;;16.58;45.62
70198;BME280;57582;-34.876;138.628;2023-05-24T13:09:30;101156;;;16.51;45.64
70198;BME280;57582;-34.876;138.628;2023-05-24T13:12:31;101151;;;16.45;45.70
70198;BME280;57582;-34.876;138.628;2023-05-24T13:15:30;101157;;;16.39;45.98
70198;BME280;57582;-34.876;138.628;2023-05-24T13:18:30;101147;;;16.31;45.90
70198;BME280;57582;-34.876;138.628;2023-05-24T13:21:30;101140;;;16.35;45.77
70198;BME280;57582;-34.876;138.628;2023-05-24T13:24:30;101142;;;16.46;45.75
70198;BME280;57582;-34.876;138.628;2023-05-24T13:27:30;101123;;;16.41;45.53
70198;BME280;57582;-34.876;138.628;2023-05-24T13:30:30;101119;;;16.45;45.37
70198;BME280;57582;-34.876;138.628;2023-05-24T13:33:30;101124;;;16.35;45.58
70198;BME280;57582;-34.876;138.628;2023-05-24T13:36:30;101117;;;16.45;45.46
70198;BME280;57582;-34.876;138.628;2023-05-24T13:39:30;101104;;;16.24;45.52
70198;BME280;57582;-34.876;138.628;2023-05-24T13:42:30;101105;;;16.42;46.09
70198;BME280;57582;-34.876;138.628;2023-05-24T13:45:30;101097;;;16.35;45.85
70198;BME280;57582;-34.876;138.628;2023-05-24T13:48:30;101107;;;16.38;45.21
70198;BME280;57582;-34.876;138.628;2023-05-24T13:51:30;101084;;;16.50;45.16
70198;BME280;57582;-34.876;138.628;2023-05-24T13:54:30;101081;;;16.61;45.27
70198;BME280;57582;-34.876;138.628;2023-05-24T13:57:30;101084;;;16.70;44.90
70198;BME280;57582;-34.876;138.628;2023-05-24T14:00:30;101098;;;16.47;44.84
70198;BME280;57582;-34.876;138.628;2023-05-24T14:03:30;101090;;;16.24;45.29
70198;BME280;57582;-34.876;138.628;2023-05-24T14:06:30;101078;;;16.22;45.15
70198;BME280;57582;-34.876;138.628;2023-05-24T14:09:30;101066;;;16.44;45.11
70198;BME280;57582;-34.876;138.628;2023-05-24T14:12:30;101073;;;16.34;45.22
70198;BME280;57582;-34.876;138.628;2023-05-24T14:15:30;101066;;;16.21;45.33
70198;BME280;57582;-34.876;138.628;2023-05-24T14:18:30;101067;;;16.27;45.57
70198;BME280;57582;-34.876;138.628;2023-05-24T14:21:30;101073;;;16.29;45.25
70198;BME280;57582;-34.876;138.628;2023-05-24T14:24:30;101064;;;16.18;45.73
70198;BME280;57582;-34.876;138.628;2023-05-24T14:27:30;101065;;;16.26;45.24
70198;BME280;57582;-34.876;138.628;2023-05-24T14:30:30;101053;;;16.31;45.04
70198;BME280;57582;-34.876;138.628;2023-05-24T14:33:30;101058;;;16.40;45.24
70198;BME280;57582;-34.876;138.628;2023-05-24T14:36:31;101049;;;16.37;45.08
70198;BME280;57582;-34.876;138.628;2023-05-24T14:39:30;101063;;;16.34;45.26
70198;BME280;57582;-34.876;138.628;2023-05-24T14:42:30;101057;;;16.37;44.75
70198;BME280;57582;-34.876;138.628;2023-05-24T14:45:30;101061;;;16.20;45.35
70198;BME280;57582;-34.876;138.628;2023-05-24T14:48:31;101049;;;16.22;45.49
70198;BME280;57582;-34.876;138.628;2023-05-24T14:51:30;101038;;;16.30;45.22
70198;BME280;57582;-34.876;138.628;2023-05-24T14:54:30;101041;;;16.34;45.26
70198;BME280;57582;-34.876;138.628;2023-05-24T14:57:30;101031;;;16.12;45.31
70198;BME280;57582;-34.876;138.628;2023-05-24T15:00:31;101030;;;16.08;45.65
70198;BME280;57582;-34.876;138.628;2023-05-24T15:03:30;101024;;;16.21;45.12
70198;BME280;57582;-34.876;138.628;2023-05-24T15:06:30;101026;;;16.19;45.20
70198;BME280;57582;-34.876;138.628;2023-05-24T15:09:30;101008;;;16.21;45.17
70198;BME280;57582;-34.876;138.628;2023-05-24T15:12:30;101007;;;16.23;45.34
70198;BME280;57582;-34.876;138.628;2023-05-24T15:15:30;101013;;;16.28;44.67
70198;BME280;57582;-34.876;138.628;2023-05-24T15:18:30;101025;;;16.41;45.16
70198;BME280;57582;-34.876;138.628;2023-05-24T15:21:30;101025;;;16.50;44.65
70198;BME280;57582;-34.876;138.628;2023-05-24T15:24:31;101018;;;16.56;44.59
70198;BME280;57582;-34.876;138.628;2023-05-24T15:27:30;101007;;;16.74;45.14
70198;BME280;57582;-34.876;138.628;2023-05-24T15:30:30;100999;;;16.90;44.40
70198;BME280;57582;-34.876;138.628;2023-05-24T15:33:30;100994;;;16.78;47.95
70198;BME280;57582;-34.876;138.628;2023-05-24T15:36:31;100994;;;16.97;43.83
70198;BME280;57582;-34.876;138.628;2023-05-24T15:39:30;100977;;;16.92;43.33
70198;BME280;57582;-34.876;138.628;2023-05-24T15:42:30;100982;;;16.97;43.53
70198;BME280;57582;-34.876;138.628;2023-05-24T15:45:30;100979;;;16.90;43.12
70198;BME280;57582;-34.876;138.628;2023-05-24T15:48:31;100972;;;17.00;43.03
70198;BME280;57582;-34.876;138.628;2023-05-24T15:51:30;100964;;;16.99;42.76
70198;BME280;57582;-34.876;138.628;2023-05-24T15:54:30;100965;;;16.86;43.05
70198;BME280;57582;-34.876;138.628;2023-05-24T15:57:30;100950;;;17.03;43.29
70198;BME280;57582;-34.876;138.628;2023-05-24T16:00:31;100963;;;17.16;42.89